createdAt,value
2017-08-21T00:00:15.397Z,1019.7
2017-08-21T00:01:27.399Z,1019.8
2017-08-21T00:02:39.463Z,1019.8
2017-08-21T00:03:51.450Z,1019.8
2017-08-21T00:05:03.460Z,1019.8
2017-08-21T00:06:18.892Z,1019.8
2017-08-21T00:07:30.991Z,1019.8
2017-08-21T00:08:43.235Z,1019.8
2017-08-21T00:09:55.419Z,1019.8
2017-08-21T00:11:07.569Z,1019.7
2017-08-21T00:12:19.648Z,1019.7
2017-08-21T00:13:31.739Z,1019.8
2017-08-21T00:14:43.833Z,1019.8
2017-08-21T00:15:59.394Z,1019.8
2017-08-21T00:17:11.439Z,1019.8
2017-08-21T00:18:23.453Z,1019.7
2017-08-21T00:19:35.684Z,1019.7
2017-08-21T00:20:47.949Z,1019.7
2017-08-21T00:22:00.193Z,1019.7
2017-08-21T00:23:12.267Z,1019.7
2017-08-21T00:24:24.507Z,1019.7
2017-08-21T00:25:36.506Z,1019.7
2017-08-21T00:26:48.578Z,1019.7
2017-08-21T00:28:00.630Z,1019.7
2017-08-21T00:29:12.919Z,1019.7
2017-08-21T00:30:24.910Z,1019.7
2017-08-21T00:31:37.160Z,1019.8
2017-08-21T00:32:49.373Z,1019.8
2017-08-21T00:34:01.647Z,1019.7
2017-08-21T00:35:13.785Z,1019.7
2017-08-21T00:36:29.599Z,1019.8
2017-08-21T00:37:41.712Z,1019.8
2017-08-21T00:38:53.847Z,1019.7
2017-08-21T00:40:05.890Z,1019.8
2017-08-21T00:41:17.985Z,1019.8
2017-08-21T00:42:30.298Z,1019.8
2017-08-21T00:43:42.401Z,1019.7
2017-08-21T00:44:54.389Z,1019.7
2017-08-21T00:46:10.180Z,1019.7
2017-08-21T00:47:22.303Z,1019.8
2017-08-21T00:48:34.608Z,1019.7
2017-08-21T00:49:46.777Z,1019.7
2017-08-21T00:51:35.708Z,1019.7
2017-08-21T00:52:47.755Z,1019.7
2017-08-21T00:53:59.852Z,1019.7
2017-08-21T00:55:11.905Z,1019.7
2017-08-21T00:56:27.461Z,1019.7
2017-08-21T00:57:39.720Z,1019.7
2017-08-21T00:58:52.009Z,1019.8
2017-08-21T01:00:04.083Z,1019.8
2017-08-21T01:01:16.378Z,1019.7
2017-08-21T01:02:28.425Z,1019.7
2017-08-21T01:03:40.529Z,1019.7
2017-08-21T01:04:52.544Z,1019.8
2017-08-21T01:06:08.711Z,1019.7
2017-08-21T01:07:20.813Z,1019.7
2017-08-21T01:08:33.096Z,1019.7
2017-08-21T01:09:45.130Z,1019.8
2017-08-21T01:10:57.178Z,1019.7
2017-08-21T01:12:09.510Z,1019.8
2017-08-21T01:13:21.648Z,1019.8
2017-08-21T01:14:33.776Z,1019.8
2017-08-21T01:15:49.041Z,1019.8
2017-08-21T01:17:01.087Z,1019.8
2017-08-21T01:18:13.125Z,1019.8
2017-08-21T01:19:25.095Z,1019.8
2017-08-21T01:20:37.324Z,1019.8
2017-08-21T01:21:49.615Z,1019.8
2017-08-21T01:23:01.869Z,1019.7
2017-08-21T01:24:14.167Z,1019.7
2017-08-21T01:25:26.343Z,1019.7
2017-08-21T01:26:38.393Z,1019.7
2017-08-21T01:27:50.366Z,1019.7
2017-08-21T01:29:02.377Z,1019.7
2017-08-21T01:30:14.366Z,1019.7
2017-08-21T01:31:26.560Z,1019.7
2017-08-21T01:32:38.543Z,1019.6
2017-08-21T01:33:50.762Z,1019.7
2017-08-21T01:35:02.761Z,1019.7
2017-08-21T01:36:18.415Z,1019.6
2017-08-21T01:37:30.450Z,1019.7
2017-08-21T01:38:42.479Z,1019.6
2017-08-21T01:39:54.499Z,1019.6
2017-08-21T01:41:06.613Z,1019.7
2017-08-21T01:42:18.724Z,1019.7
2017-08-21T01:43:30.820Z,1019.6
2017-08-21T01:44:42.908Z,1019.6
2017-08-21T01:45:58.776Z,1019.7
2017-08-21T01:47:10.815Z,1019.6
2017-08-21T01:48:22.797Z,1019.6
2017-08-21T01:49:35.035Z,1019.6
2017-08-21T01:50:47.054Z,1019.6
2017-08-21T01:51:59.363Z,1019.7
2017-08-21T01:53:11.572Z,1019.6
2017-08-21T01:54:23.584Z,1019.6
2017-08-21T01:55:35.585Z,1019.6
2017-08-21T01:56:47.604Z,1019.6
2017-08-21T01:57:59.896Z,1019.7
2017-08-21T01:59:11.890Z,1019.7
2017-08-21T02:00:23.995Z,1019.6
2017-08-21T02:01:36.068Z,1019.7
2017-08-21T02:02:48.395Z,1019.7
2017-08-21T02:04:00.719Z,1019.7
2017-08-21T02:05:12.753Z,1019.7
2017-08-21T02:06:28.637Z,1019.7
2017-08-21T02:07:40.644Z,1019.7
2017-08-21T02:08:52.633Z,1019.6
2017-08-21T02:10:04.827Z,1019.6
2017-08-21T02:11:16.802Z,1019.6
2017-08-21T02:12:29.243Z,1019.6
2017-08-21T02:13:41.245Z,1019.7
2017-08-21T02:14:53.244Z,1019.6
2017-08-21T02:16:08.589Z,1019.6
2017-08-21T02:17:20.608Z,1019.6
2017-08-21T02:18:32.920Z,1019.6
2017-08-21T02:19:45.141Z,1019.6
2017-08-21T02:20:57.348Z,1019.6
2017-08-21T02:22:09.335Z,1019.7
2017-08-21T02:23:21.427Z,1019.6
2017-08-21T02:24:33.369Z,1019.7
2017-08-21T02:25:49.429Z,1019.6
2017-08-21T02:27:01.449Z,1019.6
2017-08-21T02:28:13.452Z,1019.6
2017-08-21T02:29:25.472Z,1019.6
2017-08-21T02:30:37.667Z,1019.5
2017-08-21T02:31:49.874Z,1019.5
2017-08-21T02:33:01.856Z,1019.6
2017-08-21T02:34:13.889Z,1019.6
2017-08-21T02:35:26.215Z,1019.6
2017-08-21T02:37:15.490Z,1019.5
2017-08-21T02:38:27.711Z,1019.6
2017-08-21T02:39:39.706Z,1019.5
2017-08-21T02:40:51.753Z,1019.6
2017-08-21T02:42:03.774Z,1019.6
2017-08-21T02:43:15.790Z,1019.6
2017-08-21T02:44:28.023Z,1019.5
2017-08-21T02:45:40.235Z,1019.6
2017-08-21T02:46:52.248Z,1019.6
2017-08-21T02:48:04.323Z,1019.5
2017-08-21T02:49:16.641Z,1019.5
2017-08-21T02:50:28.778Z,1019.5
2017-08-21T02:51:40.840Z,1019.5
2017-08-21T02:52:53.145Z,1019.5
2017-08-21T02:54:05.492Z,1019.6
2017-08-21T02:55:17.523Z,1019.6
2017-08-21T02:56:33.003Z,1019.6
2017-08-21T02:57:45.021Z,1019.6
2017-08-21T02:58:57.019Z,1019.5
2017-08-21T03:00:09.152Z,1019.6
2017-08-21T03:01:21.210Z,1019.6
2017-08-21T03:02:33.249Z,1019.6
2017-08-21T03:03:45.200Z,1019.6
2017-08-21T03:04:57.217Z,1019.6
2017-08-21T03:06:12.417Z,1019.5
2017-08-21T03:07:24.523Z,1019.5
2017-08-21T03:08:36.788Z,1019.6
2017-08-21T03:09:48.832Z,1019.5
2017-08-21T03:11:00.901Z,1019.5
2017-08-21T03:12:12.948Z,1019.5
2017-08-21T03:13:25.014Z,1019.5
2017-08-21T03:14:37.312Z,1019.5
2017-08-21T03:15:53.154Z,1019.5
2017-08-21T03:17:05.154Z,1019.5
2017-08-21T03:18:17.258Z,1019.5
2017-08-21T03:19:29.545Z,1019.5
2017-08-21T03:20:41.563Z,1019.6
2017-08-21T03:21:53.554Z,1019.5
2017-08-21T03:23:05.833Z,1019.5
2017-08-21T03:24:17.847Z,1019.6
2017-08-21T03:25:29.837Z,1019.6
2017-08-21T03:26:42.085Z,1019.6
2017-08-21T03:27:54.193Z,1019.5
2017-08-21T03:29:06.227Z,1019.6
2017-08-21T03:30:18.289Z,1019.6
2017-08-21T03:31:30.564Z,1019.6
2017-08-21T03:32:42.618Z,1019.6
2017-08-21T03:33:54.594Z,1019.6
2017-08-21T03:35:06.633Z,1019.6
2017-08-21T03:36:21.833Z,1019.7
2017-08-21T03:37:34.048Z,1019.7
2017-08-21T03:38:46.117Z,1019.6
2017-08-21T03:39:58.402Z,1019.7
2017-08-21T03:41:10.464Z,1019.6
2017-08-21T03:42:22.755Z,1019.7
2017-08-21T03:43:34.759Z,1019.6
2017-08-21T03:44:46.713Z,1019.6
2017-08-21T03:46:01.860Z,1019.7
2017-08-21T03:47:14.082Z,1019.6
2017-08-21T03:48:26.177Z,1019.6
2017-08-21T03:49:38.211Z,1019.7
2017-08-21T03:50:50.201Z,1019.6
2017-08-21T03:52:02.233Z,1019.6
2017-08-21T03:53:14.219Z,1019.6
2017-08-21T03:54:26.488Z,1019.6
2017-08-21T03:55:38.518Z,1019.6
2017-08-21T03:56:50.547Z,1019.6
2017-08-21T03:58:02.593Z,1019.7
2017-08-21T03:59:14.665Z,1019.6
2017-08-21T04:00:26.809Z,1019.6
2017-08-21T04:01:38.897Z,1019.6
2017-08-21T04:02:50.942Z,1019.6
2017-08-21T04:04:03.020Z,1019.6
2017-08-21T04:05:15.347Z,1019.6
2017-08-21T04:06:30.839Z,1019.6
2017-08-21T04:07:42.885Z,1019.6
2017-08-21T04:08:55.121Z,1019.7
2017-08-21T04:10:07.140Z,1019.6
2017-08-21T04:11:19.151Z,1019.6
2017-08-21T04:12:31.385Z,1019.6
2017-08-21T04:13:43.466Z,1019.6
2017-08-21T04:14:55.488Z,1019.6
2017-08-21T04:16:10.956Z,1019.6
2017-08-21T04:17:23.686Z,1019.6
2017-08-21T04:18:36.400Z,1019.6
2017-08-21T04:19:48.699Z,1019.7
2017-08-21T04:21:01.966Z,1019.6
2017-08-21T04:22:14.852Z,1019.6
2017-08-21T04:23:27.205Z,1019.6
2017-08-21T04:24:39.447Z,1019.7
2017-08-21T04:25:55.739Z,1019.7
2017-08-21T04:27:07.996Z,1019.6
2017-08-21T04:28:20.275Z,1019.6
2017-08-21T04:29:33.010Z,1019.7
2017-08-21T04:30:46.018Z,1019.7
2017-08-21T04:31:57.990Z,1019.6
2017-08-21T04:33:10.303Z,1019.7
2017-08-21T04:34:22.977Z,1019.8
2017-08-21T04:35:35.144Z,1019.7
2017-08-21T04:36:47.178Z,1019.8
2017-08-21T04:37:59.241Z,1019.7
2017-08-21T04:39:11.232Z,1019.7
2017-08-21T04:40:24.288Z,1019.7
2017-08-21T04:41:36.377Z,1019.7
2017-08-21T04:42:49.539Z,1019.8
2017-08-21T04:44:01.895Z,1019.8
2017-08-21T04:45:14.029Z,1019.8
2017-08-21T04:46:30.512Z,1019.8
2017-08-21T04:47:42.546Z,1019.8
2017-08-21T04:48:54.590Z,1019.8
2017-08-21T04:50:07.052Z,1019.8
2017-08-21T04:51:19.824Z,1019.8
2017-08-21T04:52:31.835Z,1019.8
2017-08-21T04:53:44.630Z,1019.8
2017-08-21T04:54:57.246Z,1019.8
2017-08-21T04:56:43.173Z,1019.8
2017-08-21T04:57:55.293Z,1019.8
2017-08-21T04:59:08.104Z,1019.8
2017-08-21T05:00:20.517Z,1019.8
2017-08-21T05:01:32.485Z,1019.8
2017-08-21T05:02:44.563Z,1019.8
2017-08-21T05:03:56.792Z,1019.8
2017-08-21T05:05:09.810Z,1019.8
2017-08-21T05:06:27.152Z,1019.8
2017-08-21T05:07:39.903Z,1019.8
2017-08-21T05:08:52.144Z,1019.9
2017-08-21T05:10:04.305Z,1019.8
2017-08-21T05:11:19.600Z,1019.8
2017-08-21T05:12:31.845Z,1019.9
2017-08-21T05:13:43.840Z,1019.8
2017-08-21T05:14:56.313Z,1019.9
2017-08-21T05:16:13.246Z,1019.9
2017-08-21T05:17:25.382Z,1019.9
2017-08-21T05:18:37.493Z,1019.9
2017-08-21T05:19:50.409Z,1020.0
2017-08-21T05:21:02.686Z,1019.9
2017-08-21T05:22:14.775Z,1019.9
2017-08-21T05:23:26.872Z,1020.0
2017-08-21T05:24:39.139Z,1020.0
2017-08-21T05:25:54.839Z,1019.9
2017-08-21T05:27:08.090Z,1020.0
2017-08-21T05:28:20.972Z,1019.9
2017-08-21T05:29:33.433Z,1020.0
2017-08-21T05:30:45.497Z,1019.9
2017-08-21T05:33:13.307Z,1020.0
2017-08-21T05:34:25.391Z,1020.0
2017-08-21T05:35:37.515Z,1020.1
2017-08-21T05:36:49.700Z,1020.0
2017-08-21T05:38:01.984Z,1020.0
2017-08-21T05:39:14.876Z,1020.1
2017-08-21T05:40:27.034Z,1020.0
2017-08-21T05:41:39.132Z,1020.0
2017-08-21T05:42:51.867Z,1020.1
2017-08-21T05:44:04.988Z,1020.0
2017-08-21T05:45:54.109Z,1020.1
2017-08-21T05:47:44.226Z,1020.1
2017-08-21T05:48:56.261Z,1020.1
2017-08-21T05:50:08.305Z,1020.1
2017-08-21T05:51:20.926Z,1020.1
2017-08-21T05:52:33.840Z,1020.1
2017-08-21T05:53:45.937Z,1020.1
2017-08-21T05:54:57.938Z,1020.1
2017-08-21T05:56:14.249Z,1020.2
2017-08-21T05:57:26.234Z,1020.1
2017-08-21T05:58:38.228Z,1020.1
2017-08-21T05:59:50.894Z,1020.1
2017-08-21T06:01:03.949Z,1020.2
2017-08-21T06:02:15.994Z,1020.2
2017-08-21T06:03:28.907Z,1020.1
2017-08-21T06:04:41.911Z,1020.2
2017-08-21T06:05:58.545Z,1020.1
2017-08-21T06:07:11.503Z,1020.1
2017-08-21T06:08:24.862Z,1020.1
2017-08-21T06:10:52.779Z,1020.2
2017-08-21T06:12:05.072Z,1020.2
2017-08-21T06:13:17.270Z,1020.2
2017-08-21T06:14:29.798Z,1020.3
2017-08-21T06:16:15.812Z,1020.2
2017-08-21T06:17:27.984Z,1020.2
2017-08-21T06:18:40.076Z,1020.2
2017-08-21T06:19:52.826Z,1020.3
2017-08-21T06:21:05.852Z,1020.2
2017-08-21T06:22:17.837Z,1020.3
2017-08-21T06:23:30.172Z,1020.3
2017-08-21T06:24:43.198Z,1020.3
2017-08-21T06:26:29.608Z,1020.3
2017-08-21T06:27:41.672Z,1020.3
2017-08-21T06:28:53.811Z,1020.3
2017-08-21T06:30:07.077Z,1020.4
2017-08-21T06:31:19.347Z,1020.4
2017-08-21T06:32:31.489Z,1020.4
2017-08-21T06:33:43.604Z,1020.3
2017-08-21T06:34:56.335Z,1020.4
2017-08-21T06:36:42.495Z,1020.4
2017-08-21T06:37:54.858Z,1020.4
2017-08-21T06:39:07.246Z,1020.4
2017-08-21T06:40:19.995Z,1020.4
2017-08-21T06:41:31.960Z,1020.5
2017-08-21T06:42:43.957Z,1020.5
2017-08-21T06:43:56.221Z,1020.4
2017-08-21T06:45:08.290Z,1020.5
2017-08-21T06:46:23.788Z,1020.5
2017-08-21T06:47:35.764Z,1020.5
2017-08-21T06:48:47.975Z,1020.6
2017-08-21T06:49:59.947Z,1020.5
2017-08-21T06:52:30.295Z,1020.6
2017-08-21T06:53:42.309Z,1020.5
2017-08-21T06:54:54.275Z,1020.5
2017-08-21T06:56:10.062Z,1020.5
2017-08-21T06:57:22.136Z,1020.5
2017-08-21T06:58:34.305Z,1020.5
2017-08-21T06:59:46.415Z,1020.4
2017-08-21T07:00:58.731Z,1020.5
2017-08-21T07:02:10.780Z,1020.5
2017-08-21T07:03:22.831Z,1020.5
2017-08-21T07:04:34.805Z,1020.5
2017-08-21T07:06:20.669Z,1020.5
2017-08-21T07:07:34.472Z,1020.5
2017-08-21T07:08:46.454Z,1020.5
2017-08-21T07:11:15.591Z,1020.5
2017-08-21T07:13:04.521Z,1020.5
2017-08-21T07:14:16.503Z,1020.5
2017-08-21T07:15:28.536Z,1020.5
2017-08-21T07:16:40.634Z,1020.5
2017-08-21T07:17:52.710Z,1020.5
2017-08-21T07:19:05.021Z,1020.5
2017-08-21T07:20:17.061Z,1020.5
2017-08-21T07:21:29.117Z,1020.5
2017-08-21T07:22:41.435Z,1020.5
2017-08-21T07:23:53.468Z,1020.6
2017-08-21T07:25:05.605Z,1020.5
2017-08-21T07:26:21.238Z,1020.5
2017-08-21T07:27:33.349Z,1020.6
2017-08-21T07:28:45.678Z,1020.5
2017-08-21T07:29:57.929Z,1020.5
2017-08-21T07:31:09.959Z,1020.5
2017-08-21T07:32:22.299Z,1020.5
2017-08-21T07:33:34.299Z,1020.5
2017-08-21T07:34:46.233Z,1020.4
2017-08-21T07:36:01.616Z,1020.5
2017-08-21T07:37:13.936Z,1020.5
2017-08-21T07:38:26.152Z,1020.4
2017-08-21T07:39:38.299Z,1020.5
2017-08-21T07:40:50.342Z,1020.5
2017-08-21T07:42:02.339Z,1020.5
2017-08-21T07:43:14.612Z,1020.5
2017-08-21T07:44:26.638Z,1020.4
2017-08-21T07:45:39.135Z,1020.5
2017-08-21T07:46:51.482Z,1020.6
2017-08-21T07:48:04.033Z,1020.5
2017-08-21T07:49:16.088Z,1020.6
2017-08-21T07:50:28.162Z,1020.6
2017-08-21T07:51:40.223Z,1020.5
2017-08-21T07:52:52.595Z,1020.5
2017-08-21T07:54:04.719Z,1020.5
2017-08-21T07:55:16.943Z,1020.5
2017-08-21T07:56:32.695Z,1020.5
2017-08-21T07:57:45.094Z,1020.5
2017-08-21T07:58:57.033Z,1020.5
2017-08-21T08:00:09.167Z,1020.6
2017-08-21T08:01:21.208Z,1020.5
2017-08-21T08:02:33.245Z,1020.5
2017-08-21T08:03:45.324Z,1020.6
2017-08-21T08:04:57.316Z,1020.6
2017-08-21T08:06:13.246Z,1020.6
2017-08-21T08:07:25.312Z,1020.6
2017-08-21T08:08:37.514Z,1020.6
2017-08-21T08:09:49.557Z,1020.6
2017-08-21T08:11:01.592Z,1020.6
2017-08-21T08:12:13.894Z,1020.6
2017-08-21T08:13:25.982Z,1020.6
2017-08-21T08:14:38.260Z,1020.7
2017-08-21T08:15:53.896Z,1020.6
2017-08-21T08:17:06.225Z,1020.7
2017-08-21T08:18:18.324Z,1020.7
2017-08-21T08:19:30.371Z,1020.6
2017-08-21T08:20:42.454Z,1020.6
2017-08-21T08:21:54.610Z,1020.6
2017-08-21T08:23:06.982Z,1020.7
2017-08-21T08:24:19.684Z,1020.6
2017-08-21T08:25:31.692Z,1020.6
2017-08-21T08:26:43.757Z,1020.7
2017-08-21T08:27:55.765Z,1020.6
2017-08-21T08:29:08.032Z,1020.6
2017-08-21T08:30:20.252Z,1020.6
2017-08-21T08:31:32.241Z,1020.6
2017-08-21T08:32:44.245Z,1020.6
2017-08-21T08:33:56.684Z,1020.7
2017-08-21T08:35:08.867Z,1020.7
2017-08-21T08:36:23.923Z,1020.7
2017-08-21T08:37:36.276Z,1020.7
2017-08-21T08:38:48.612Z,1020.7
2017-08-21T08:40:00.834Z,1020.6
2017-08-21T08:41:12.812Z,1020.6
2017-08-21T08:42:25.047Z,1020.7
2017-08-21T08:43:37.156Z,1020.7
2017-08-21T08:44:49.168Z,1020.7
2017-08-21T08:46:04.665Z,1020.6
2017-08-21T08:47:16.831Z,1020.6
2017-08-21T08:48:29.130Z,1020.6
2017-08-21T08:49:41.139Z,1020.5
2017-08-21T08:50:53.373Z,1020.6
2017-08-21T08:52:05.396Z,1020.6
2017-08-21T08:53:18.474Z,1020.7
2017-08-21T08:54:30.502Z,1020.6
2017-08-21T08:55:42.586Z,1020.7
2017-08-21T08:56:54.645Z,1020.6
2017-08-21T08:58:07.020Z,1020.7
2017-08-21T08:59:19.105Z,1020.6
2017-08-21T09:01:07.698Z,1020.6
2017-08-21T09:02:19.675Z,1020.6
2017-08-21T09:03:31.655Z,1020.6
2017-08-21T09:04:43.675Z,1020.6
2017-08-21T09:05:59.034Z,1020.6
2017-08-21T09:07:11.339Z,1020.6
2017-08-21T09:08:23.653Z,1020.6
2017-08-21T09:09:35.775Z,1020.6
2017-08-21T09:10:47.772Z,1020.5
2017-08-21T09:12:00.045Z,1020.6
2017-08-21T09:13:12.140Z,1020.6
2017-08-21T09:14:24.129Z,1020.6
2017-08-21T09:15:36.117Z,1020.5
2017-08-21T09:17:23.066Z,1020.6
2017-08-21T09:18:56.487Z,1020.6
2017-08-21T09:20:58.929Z,1020.6
2017-08-21T09:22:43.927Z,1020.5
2017-08-21T09:25:09.182Z,1020.6
2017-08-21T09:25:56.291Z,1020.6
2017-08-21T09:36:09.510Z,1020.5
2017-08-21T09:46:24.702Z,1020.6
2017-08-21T09:56:40.180Z,1020.4
2017-08-21T10:06:55.965Z,1020.3
2017-08-21T10:17:11.116Z,1020.4
2017-08-21T10:27:26.376Z,1020.4
2017-08-21T10:37:41.633Z,1020.3
2017-08-21T10:47:56.934Z,1020.3
2017-08-21T10:58:13.296Z,1020.2
2017-08-21T11:08:29.188Z,1020.2
2017-08-21T11:18:44.792Z,1020.2
2017-08-21T11:29:00.586Z,1020.0
2017-08-21T11:39:16.282Z,1019.9
2017-08-21T11:49:32.562Z,1019.7
2017-08-21T11:59:48.405Z,1019.7
2017-08-21T12:02:35.727Z,1019.7
2017-08-21T12:12:51.390Z,1019.7
2017-08-21T12:23:07.248Z,1019.6
2017-08-21T12:33:23.608Z,1019.7
2017-08-21T12:43:39.862Z,695.7
2017-08-21T13:04:15.135Z,695.7
2017-08-21T13:14:31.142Z,695.7
2017-08-21T13:18:34.710Z,1019.5
2017-08-21T13:28:40.484Z,1019.3
2017-08-21T13:38:56.793Z,1019.2
2017-08-21T13:49:12.889Z,1019.3
2017-08-21T13:59:28.998Z,1019.3
2017-08-21T14:10:29.498Z,1019.3
2017-08-21T14:20:44.763Z,1019.2
2017-08-21T14:31:00.061Z,1019.0
2017-08-21T14:41:15.543Z,1019.0
2017-08-21T14:51:31.385Z,1019.1
2017-08-21T15:01:46.700Z,1019.1
2017-08-21T15:12:02.061Z,1019.1
2017-08-21T15:22:18.037Z,1019.1
2017-08-21T15:32:33.294Z,1019.0
2017-08-21T15:42:48.590Z,1019.0
2017-08-21T15:53:03.859Z,1019.1
2017-08-21T16:03:19.852Z,1019.1
2017-08-21T16:13:35.268Z,1019.2
2017-08-21T16:23:51.453Z,1019.1
2017-08-21T16:34:07.500Z,1019.0
2017-08-21T16:44:57.382Z,1019.0
2017-08-21T16:55:13.394Z,1019.0
2017-08-21T17:05:29.644Z,1019.0
2017-08-21T17:15:42.862Z,1018.9
2017-08-21T17:25:58.117Z,1018.9
2017-08-21T17:36:14.146Z,1018.8
2017-08-21T17:46:29.535Z,1018.8
2017-08-21T17:56:45.608Z,1018.7
2017-08-21T18:07:00.886Z,1018.7
2017-08-21T18:17:16.131Z,1018.8
2017-08-21T18:27:31.270Z,1018.7
2017-08-21T18:37:46.602Z,1018.8
2017-08-21T18:48:01.749Z,1019.0
2017-08-21T18:58:17.324Z,1019.0
2017-08-21T19:08:33.421Z,1019.2
2017-08-21T19:18:49.726Z,1019.1
2017-08-21T19:29:05.757Z,1019.1
2017-08-21T19:39:21.894Z,1019.1
2017-08-21T19:49:38.037Z,1019.3
2017-08-21T19:59:53.376Z,1019.3
2017-08-21T20:10:09.869Z,1019.4
2017-08-21T20:20:25.795Z,1019.4
2017-08-21T20:30:42.212Z,1019.3
2017-08-21T20:41:28.888Z,1019.4
2017-08-21T20:51:45.036Z,1019.4
2017-08-21T21:02:01.353Z,1019.4
2017-08-21T21:12:17.422Z,1019.4
2017-08-21T21:22:32.920Z,1019.4
2017-08-21T21:32:48.783Z,1019.5
2017-08-21T21:43:04.215Z,1019.5
2017-08-21T21:53:20.481Z,1019.4
2017-08-21T22:03:36.459Z,1019.3
2017-08-21T22:13:51.705Z,1019.2
2017-08-21T22:24:06.969Z,1019.2
2017-08-21T22:34:22.221Z,1019.3
2017-08-21T22:44:37.855Z,1019.2
2017-08-21T22:54:53.939Z,1019.3
2017-08-21T23:05:10.278Z,1019.2
2017-08-21T23:15:26.546Z,1019.3
2017-08-21T23:25:42.756Z,1019.2
2017-08-21T23:35:59.169Z,1019.1
2017-08-21T23:46:15.293Z,1019.1
2017-08-21T23:56:31.378Z,1019.3
